createdAt,value
2023-05-22T00:02:07.546Z,2.00
2023-05-22T00:04:34.165Z,1.80
2023-05-22T00:07:00.660Z,1.95
2023-05-22T00:09:27.152Z,2.05
2023-05-22T00:11:53.684Z,2.10
2023-05-22T00:14:21.421Z,2.10
2023-05-22T00:16:47.897Z,2.10
2023-05-22T00:19:14.466Z,1.90
2023-05-22T00:21:41.130Z,1.85
2023-05-22T00:24:08.030Z,1.98
2023-05-22T00:26:34.495Z,2.00
2023-05-22T00:29:01.011Z,1.67
2023-05-22T00:31:28.831Z,1.90
2023-05-22T00:33:55.363Z,1.75
2023-05-22T00:36:21.963Z,2.00
2023-05-22T00:38:48.412Z,1.95
2023-05-22T00:41:15.072Z,2.25
2023-05-22T00:43:41.576Z,1.80
2023-05-22T00:46:08.121Z,1.90
2023-05-22T00:48:35.925Z,1.83
2023-05-22T00:51:03.149Z,1.77
2023-05-22T00:53:30.543Z,1.88
2023-05-22T00:55:58.369Z,1.88
2023-05-22T00:58:26.790Z,1.88
2023-05-22T01:00:53.308Z,2.00
2023-05-22T01:03:20.266Z,1.73
2023-05-22T01:05:48.181Z,1.77
2023-05-22T01:08:14.720Z,1.80
2023-05-22T01:10:41.426Z,1.98
2023-05-22T01:13:18.981Z,1.73
2023-05-22T01:15:56.227Z,1.60
2023-05-22T01:18:31.060Z,1.90
2023-05-22T01:21:09.017Z,1.88
2023-05-22T01:23:55.383Z,1.80
2023-05-22T01:26:39.404Z,1.70
2023-05-22T01:29:23.478Z,1.60
2023-05-22T01:31:54.244Z,1.92
2023-05-22T01:34:21.394Z,2.30
2023-05-22T01:36:50.662Z,1.80
2023-05-22T01:39:17.986Z,2.10
2023-05-22T01:41:44.658Z,1.90
2023-05-22T01:44:11.171Z,1.80
2023-05-22T01:46:37.653Z,1.90
2023-05-22T01:49:05.564Z,2.00
2023-05-22T01:51:41.678Z,1.73
2023-05-22T01:54:14.645Z,1.60
2023-05-22T01:56:48.585Z,1.90
2023-05-22T02:01:50.339Z,2.17
2023-05-22T02:04:19.611Z,1.90
2023-05-22T02:06:47.166Z,1.98
2023-05-22T02:09:15.965Z,1.85
2023-05-22T02:11:43.171Z,1.92
2023-05-22T02:14:10.173Z,1.80
2023-05-22T02:16:36.727Z,2.00
2023-05-22T02:19:03.335Z,1.95
2023-05-22T02:21:31.193Z,1.75
2023-05-22T02:23:57.688Z,1.83
2023-05-22T02:26:24.228Z,1.90
2023-05-22T02:28:50.739Z,1.95
2023-05-22T02:31:18.483Z,1.90
2023-05-22T02:33:45.035Z,1.98
2023-05-22T02:36:11.534Z,2.03
2023-05-22T02:38:39.576Z,1.95
2023-05-22T02:41:07.190Z,2.35
2023-05-22T02:43:33.810Z,2.30
2023-05-22T02:46:00.232Z,1.73
2023-05-22T02:48:26.718Z,1.85
2023-05-22T02:50:53.137Z,1.70
2023-05-22T02:53:19.612Z,1.95
2023-05-22T02:55:47.605Z,1.80
2023-05-22T02:58:14.328Z,1.92
2023-05-22T03:00:41.430Z,2.08
2023-05-22T03:03:08.282Z,1.92
2023-05-22T03:05:34.857Z,2.33
2023-05-22T03:08:01.342Z,2.00
2023-05-22T03:10:27.905Z,2.13
2023-05-22T03:12:55.659Z,1.80
2023-05-22T03:15:22.172Z,1.98
2023-05-22T03:17:48.651Z,1.88
2023-05-22T03:20:15.139Z,2.00
2023-05-22T03:22:41.700Z,1.83
2023-05-22T03:25:09.159Z,2.10
2023-05-22T03:27:35.923Z,1.70
2023-05-22T03:30:04.119Z,1.80
2023-05-22T03:32:30.604Z,2.30
2023-05-22T03:34:57.075Z,2.13
2023-05-22T03:37:23.565Z,1.90
2023-05-22T03:39:50.053Z,2.00
2023-05-22T03:42:16.508Z,1.75
2023-05-22T03:44:43.017Z,2.05
2023-05-22T03:47:10.779Z,1.90
2023-05-22T03:49:37.236Z,1.88
2023-05-22T03:52:04.044Z,1.80
2023-05-22T03:54:30.443Z,2.10
2023-05-22T03:56:56.964Z,1.75
2023-05-22T03:59:23.495Z,2.50
2023-05-22T04:01:50.078Z,2.17
2023-05-22T04:04:17.881Z,1.80
2023-05-22T04:06:44.693Z,2.30
2023-05-22T04:09:11.687Z,1.90
2023-05-22T04:11:38.622Z,2.05
2023-05-22T04:14:05.186Z,2.10
2023-05-22T04:16:31.740Z,1.70
2023-05-22T04:18:58.314Z,1.92
2023-05-22T04:21:26.114Z,1.98
2023-05-22T04:23:52.596Z,2.00
2023-05-22T04:26:19.064Z,1.55
2023-05-22T04:28:45.551Z,1.90
2023-05-22T04:31:12.310Z,2.30
2023-05-22T04:33:38.898Z,2.22
2023-05-22T04:36:06.540Z,2.10
2023-05-22T04:38:34.648Z,2.95
2023-05-22T04:41:01.092Z,2.70
2023-05-22T04:43:27.627Z,3.35
2023-05-22T04:45:54.118Z,3.03
2023-05-22T04:48:20.545Z,3.50
2023-05-22T04:50:47.071Z,2.95
2023-05-22T04:53:13.552Z,2.60
2023-05-22T04:55:41.408Z,3.20
2023-05-22T04:58:07.934Z,3.17
2023-05-22T05:00:34.439Z,3.25
2023-05-22T05:03:01.175Z,3.30
2023-05-22T05:05:27.808Z,2.70
2023-05-22T05:07:54.327Z,2.30
2023-05-22T05:10:20.842Z,2.30
2023-05-22T05:12:48.633Z,2.20
2023-05-22T05:15:15.089Z,2.40
2023-05-22T05:17:41.523Z,2.13
2023-05-22T05:20:08.706Z,2.15
2023-05-22T05:22:35.276Z,2.20
2023-05-22T05:25:01.755Z,2.00
2023-05-22T05:27:28.362Z,2.10
2023-05-22T05:29:56.283Z,2.20
2023-05-22T05:32:22.846Z,2.10
2023-05-22T05:34:49.556Z,2.10
2023-05-22T05:37:16.172Z,2.47
2023-05-22T05:39:42.610Z,2.42
2023-05-22T05:42:09.066Z,2.05
2023-05-22T05:44:35.501Z,1.98
2023-05-22T05:47:03.500Z,2.10
2023-05-22T05:49:29.947Z,2.30
2023-05-22T05:51:56.471Z,2.60
2023-05-22T05:54:22.971Z,2.55
2023-05-22T05:56:49.794Z,2.20
2023-05-22T05:59:16.232Z,2.30
2023-05-22T06:01:43.653Z,2.30
2023-05-22T06:04:11.409Z,2.20
2023-05-22T06:06:38.199Z,2.10
2023-05-22T06:09:05.211Z,1.90
2023-05-22T06:11:31.655Z,2.35
2023-05-22T06:13:58.167Z,2.20
2023-05-22T06:16:24.868Z,2.30
2023-05-22T06:18:51.488Z,2.13
2023-05-22T06:21:19.662Z,2.33
2023-05-22T06:23:46.139Z,2.33
2023-05-22T06:26:12.609Z,2.20
2023-05-22T06:28:39.506Z,2.10
2023-05-22T06:31:05.981Z,2.28
2023-05-22T06:33:32.527Z,2.08
2023-05-22T06:35:58.999Z,2.40
2023-05-22T06:38:26.809Z,2.38
2023-05-22T06:40:53.430Z,2.30
2023-05-22T06:43:19.893Z,2.35
2023-05-22T06:45:46.451Z,2.10
2023-05-22T06:48:12.894Z,2.33
2023-05-22T06:50:39.597Z,2.08
2023-05-22T06:53:06.280Z,2.40
2023-05-22T06:55:34.234Z,2.40
2023-05-22T06:58:00.734Z,2.30
2023-05-22T07:00:27.267Z,2.70
2023-05-22T07:02:53.751Z,3.40
2023-05-22T07:05:20.253Z,3.08
2023-05-22T07:07:46.785Z,3.35
2023-05-22T07:10:13.407Z,3.20
2023-05-22T07:12:41.309Z,3.17
2023-05-22T07:15:08.838Z,3.13
2023-05-22T07:17:35.388Z,3.33
2023-05-22T07:20:02.148Z,3.30
2023-05-22T07:22:28.752Z,3.17
2023-05-22T07:24:55.262Z,2.63
2023-05-22T07:27:21.696Z,3.10
2023-05-22T07:29:49.512Z,3.25
2023-05-22T07:32:16.016Z,2.72
2023-05-22T07:34:42.494Z,3.00
2023-05-22T07:37:12.036Z,3.67
2023-05-22T07:39:38.545Z,3.47
2023-05-22T07:42:05.566Z,3.60
2023-05-22T07:44:32.190Z,3.00
2023-05-22T07:47:00.102Z,3.30
2023-05-22T07:49:26.666Z,2.75
2023-05-22T07:51:53.168Z,2.83
2023-05-22T07:54:19.613Z,2.92
2023-05-22T07:56:46.071Z,3.30
2023-05-22T07:59:12.759Z,3.35
2023-05-22T08:01:39.923Z,3.05
2023-05-22T08:04:08.094Z,3.38
2023-05-22T08:06:34.860Z,3.22
2023-05-22T08:09:01.731Z,3.13
2023-05-22T08:11:28.378Z,3.50
2023-05-22T08:13:54.965Z,3.25
2023-05-22T08:16:21.614Z,3.58
2023-05-22T08:18:48.214Z,3.45
2023-05-22T08:21:16.045Z,3.25
2023-05-22T08:23:42.591Z,3.10
2023-05-22T08:26:09.086Z,3.85
2023-05-22T08:28:35.626Z,3.65
2023-05-22T08:31:02.214Z,3.75
2023-05-22T08:33:28.690Z,3.45
2023-05-22T08:35:55.170Z,3.60
2023-05-22T08:38:22.998Z,3.40
2023-05-22T08:40:50.787Z,3.90
2023-05-22T08:43:20.318Z,4.13
2023-05-22T08:45:52.003Z,4.10
2023-05-22T08:48:20.646Z,4.35
2023-05-22T08:50:52.613Z,3.80
2023-05-22T08:53:20.047Z,4.40
2023-05-22T08:55:48.043Z,3.47
2023-05-22T08:58:15.068Z,3.47
2023-05-22T09:00:41.959Z,3.53
2023-05-22T09:03:08.772Z,3.95
2023-05-22T09:05:35.523Z,3.90
2023-05-22T09:08:16.025Z,4.88
2023-05-22T09:10:46.192Z,4.18
2023-05-22T09:13:24.410Z,3.75
2023-05-22T09:15:51.186Z,3.75
2023-05-22T09:18:17.728Z,3.30
2023-05-22T09:20:44.363Z,3.17
2023-05-22T09:23:11.856Z,3.47
2023-05-22T09:25:38.334Z,3.20
2023-05-22T09:28:04.866Z,3.92
2023-05-22T09:30:35.347Z,3.20
2023-05-22T09:33:02.217Z,3.38
2023-05-22T09:35:32.032Z,3.30
2023-05-22T09:37:58.919Z,3.50
2023-05-22T09:40:27.716Z,2.75
2023-05-22T09:42:54.277Z,3.10
2023-05-22T09:45:21.981Z,3.10
2023-05-22T09:47:50.091Z,3.28
2023-05-22T09:50:16.687Z,2.88
2023-05-22T09:52:45.392Z,3.22
2023-05-22T09:55:13.733Z,3.00
2023-05-22T09:57:42.059Z,2.90
2023-05-22T10:00:11.366Z,3.33
2023-05-22T10:02:38.180Z,2.92
2023-05-22T10:05:06.688Z,2.58
2023-05-22T10:07:36.628Z,3.20
2023-05-22T10:10:06.924Z,2.78
2023-05-22T10:12:36.166Z,3.28
2023-05-22T10:15:03.412Z,3.03
2023-05-22T10:17:30.689Z,2.90
2023-05-22T10:19:58.044Z,3.40
2023-05-22T10:22:28.944Z,2.50
2023-05-22T10:24:55.673Z,2.65
2023-05-22T10:27:22.167Z,2.90
2023-05-22T10:29:54.720Z,2.72
2023-05-22T10:32:28.304Z,2.60
2023-05-22T10:35:01.802Z,2.97
2023-05-22T10:37:45.460Z,2.67
2023-05-22T10:40:15.834Z,3.08
2023-05-22T10:42:43.425Z,3.00
2023-05-22T10:45:10.807Z,2.80
2023-05-22T10:47:37.397Z,2.92
2023-05-22T10:50:06.877Z,2.97
2023-05-22T10:52:33.781Z,2.80
2023-05-22T10:55:05.601Z,3.47
2023-05-22T10:57:33.119Z,3.08
2023-05-22T11:00:09.423Z,3.05
2023-05-22T11:02:40.123Z,3.00
2023-05-22T11:05:26.462Z,3.30
2023-05-22T11:07:52.969Z,2.90
2023-05-22T11:10:27.440Z,3.78
2023-05-22T11:13:02.959Z,3.05
2023-05-22T11:15:31.233Z,3.30
2023-05-22T11:18:03.142Z,3.03
2023-05-22T11:20:29.728Z,3.55
2023-05-22T11:22:58.113Z,2.60
2023-05-22T11:25:25.063Z,3.15
2023-05-22T11:27:54.095Z,2.75
2023-05-22T11:30:24.679Z,2.90
2023-05-22T11:32:51.689Z,3.22
2023-05-22T11:35:19.146Z,3.03
2023-05-22T11:37:46.089Z,2.72
2023-05-22T11:40:15.053Z,3.13
2023-05-22T11:42:41.596Z,3.17
2023-05-22T11:45:10.646Z,3.30
2023-05-22T11:47:38.861Z,3.25
2023-05-22T11:50:10.050Z,3.97
2023-05-22T11:52:39.770Z,3.00
2023-05-22T11:55:08.453Z,3.60
2023-05-22T11:57:35.839Z,2.75
2023-05-22T12:00:03.678Z,3.13
2023-05-22T12:02:31.566Z,3.20
2023-05-22T12:04:58.568Z,3.20
2023-05-22T12:07:26.233Z,3.05
2023-05-22T12:09:55.361Z,3.00
2023-05-22T12:12:22.678Z,3.20
2023-05-22T12:14:49.748Z,3.17
2023-05-22T12:17:17.446Z,3.00
2023-05-22T12:19:45.846Z,2.97
2023-05-22T12:22:12.560Z,3.10
2023-05-22T12:24:39.046Z,3.08
2023-05-22T12:27:08.972Z,3.00
2023-05-22T12:29:35.588Z,3.17
2023-05-22T12:32:03.301Z,3.55
2023-05-22T12:34:33.232Z,3.80
2023-05-22T12:37:01.528Z,4.10
2023-05-22T12:39:28.433Z,4.65
2023-05-22T12:41:55.039Z,4.30
2023-05-22T12:44:21.594Z,3.80
2023-05-22T12:46:48.455Z,3.60
2023-05-22T12:49:15.020Z,4.18
2023-05-22T12:51:41.738Z,3.47
2023-05-22T12:54:09.620Z,4.15
2023-05-22T12:56:36.276Z,3.78
2023-05-22T12:59:02.750Z,4.57
2023-05-22T13:01:29.580Z,4.25
2023-05-22T13:03:56.072Z,3.50
2023-05-22T13:06:22.567Z,4.60
2023-05-22T13:08:49.065Z,3.55
2023-05-22T13:11:17.046Z,3.80
2023-05-22T13:13:43.538Z,3.78
2023-05-22T13:16:10.048Z,4.20
2023-05-22T13:18:36.557Z,4.13
2023-05-22T13:21:03.110Z,4.53
2023-05-22T13:23:29.698Z,4.13
2023-05-22T13:25:56.145Z,3.70
2023-05-22T13:28:23.963Z,4.20
2023-05-22T13:30:50.438Z,4.40
2023-05-22T13:33:17.012Z,4.38
2023-05-22T13:38:28.628Z,4.00
2023-05-22T13:40:55.376Z,4.20
2023-05-22T13:43:21.817Z,4.00
2023-05-22T13:45:49.743Z,3.95
2023-05-22T13:48:16.192Z,3.70
2023-05-22T13:50:42.778Z,4.20
2023-05-22T13:53:09.333Z,4.10
2023-05-22T13:55:35.982Z,4.40
2023-05-22T13:58:03.889Z,4.72
2023-05-22T14:00:30.373Z,4.47
2023-05-22T14:02:58.344Z,5.18
2023-05-22T14:05:25.070Z,5.82
2023-05-22T14:07:51.534Z,4.90
2023-05-22T14:10:18.243Z,4.65
2023-05-22T14:12:44.713Z,4.70
2023-05-22T14:15:11.468Z,4.95
2023-05-22T14:17:38.374Z,5.22
2023-05-22T14:20:06.960Z,4.80
2023-05-22T14:22:41.464Z,4.70
2023-05-22T14:25:14.742Z,4.03
2023-05-22T14:27:41.401Z,4.18
2023-05-22T14:30:08.588Z,4.38
2023-05-22T14:32:35.114Z,4.65
2023-05-22T14:35:01.572Z,3.80
2023-05-22T14:37:29.437Z,4.13
2023-05-22T14:39:55.878Z,4.35
2023-05-22T14:42:22.414Z,4.10
2023-05-22T14:44:48.909Z,3.92
2023-05-22T14:47:15.436Z,3.90
2023-05-22T14:49:41.914Z,4.07
2023-05-22T14:52:08.478Z,3.88
2023-05-22T14:54:36.302Z,3.83
2023-05-22T14:57:02.781Z,3.85
2023-05-22T14:59:29.354Z,4.50
2023-05-22T15:01:55.981Z,4.07
2023-05-22T15:04:22.579Z,4.25
2023-05-22T15:06:49.124Z,3.90
2023-05-22T15:09:15.716Z,3.45
2023-05-22T15:11:43.632Z,3.67
2023-05-22T15:14:10.081Z,3.30
2023-05-22T15:16:36.655Z,3.00
2023-05-22T15:19:03.175Z,3.35
2023-05-22T15:21:29.882Z,3.70
2023-05-22T15:23:56.338Z,3.42
2023-05-22T15:26:22.839Z,3.60
2023-05-22T15:28:50.579Z,3.50
2023-05-22T15:31:17.364Z,3.58
2023-05-22T15:33:43.968Z,3.40
2023-05-22T15:36:10.423Z,3.60
2023-05-22T15:38:36.851Z,3.22
2023-05-22T15:41:03.495Z,3.65
2023-05-22T15:43:29.999Z,3.60
2023-05-22T15:45:57.833Z,3.70
2023-05-22T15:48:24.361Z,3.50
2023-05-22T15:50:50.842Z,3.58
2023-05-22T15:53:17.294Z,3.70
2023-05-22T15:55:43.731Z,3.90
2023-05-22T15:58:10.248Z,3.25
2023-05-22T16:00:36.655Z,3.50
2023-05-22T16:03:05.037Z,3.30
2023-05-22T16:05:31.609Z,3.88
2023-05-22T16:07:58.114Z,3.78
2023-05-22T16:10:24.892Z,4.60
2023-05-22T16:12:51.617Z,3.85
2023-05-22T16:15:18.091Z,4.50
2023-05-22T16:17:44.608Z,4.40
2023-05-22T16:20:12.473Z,4.47
2023-05-22T16:22:47.952Z,4.40
2023-05-22T16:25:16.076Z,3.65
2023-05-22T16:27:42.656Z,3.88
2023-05-22T16:30:09.813Z,4.18
2023-05-22T16:32:36.416Z,4.82
2023-05-22T16:35:04.060Z,5.10
2023-05-22T16:37:32.875Z,5.38
2023-05-22T16:39:59.521Z,4.68
2023-05-22T16:42:26.098Z,4.28
2023-05-22T16:44:52.722Z,3.97
2023-05-22T16:47:19.144Z,4.00
2023-05-22T16:49:45.668Z,4.57
2023-05-22T16:52:12.143Z,4.97
2023-05-22T16:54:39.907Z,4.25
2023-05-22T16:57:06.380Z,3.90
2023-05-22T16:59:32.970Z,3.90
2023-05-22T17:01:59.484Z,4.40
2023-05-22T17:04:25.967Z,4.68
2023-05-22T17:06:52.491Z,3.85
2023-05-22T17:09:19.119Z,4.00
2023-05-22T17:11:46.870Z,4.07
2023-05-22T17:14:13.452Z,4.63
2023-05-22T17:16:40.088Z,4.68
2023-05-22T17:19:06.583Z,3.97
2023-05-22T17:21:33.172Z,4.00
2023-05-22T17:23:59.672Z,3.92
2023-05-22T17:26:26.106Z,4.30
2023-05-22T17:28:54.021Z,4.20
2023-05-22T17:31:20.496Z,4.15
2023-05-22T17:33:46.938Z,4.15
2023-05-22T17:36:13.374Z,3.83
2023-05-22T17:38:39.972Z,3.83
2023-05-22T17:41:06.426Z,3.80
2023-05-22T17:43:32.921Z,4.35
2023-05-22T17:46:00.945Z,4.15
2023-05-22T17:48:27.561Z,4.40
2023-05-22T17:50:54.005Z,3.88
2023-05-22T17:53:20.783Z,3.67
2023-05-22T17:55:48.709Z,3.42
2023-05-22T17:58:16.517Z,3.90
2023-05-22T18:00:43.366Z,3.58
2023-05-22T18:03:11.361Z,3.58
2023-05-22T18:05:37.960Z,4.35
2023-05-22T18:08:04.600Z,3.67
2023-05-22T18:10:31.189Z,3.00
2023-05-22T18:12:57.696Z,3.42
2023-05-22T18:15:24.124Z,3.20
2023-05-22T18:17:50.628Z,3.17
2023-05-22T18:20:18.586Z,3.70
2023-05-22T18:22:45.400Z,3.47
2023-05-22T18:25:12.094Z,3.17
2023-05-22T18:27:38.722Z,3.58
2023-05-22T18:30:06.141Z,3.08
2023-05-22T18:32:32.670Z,3.17
2023-05-22T18:34:59.496Z,2.92
2023-05-22T18:37:28.060Z,2.95
2023-05-22T18:39:54.607Z,3.00
2023-05-22T18:42:21.175Z,2.97
2023-05-22T18:44:48.991Z,3.10
2023-05-22T18:47:16.017Z,3.10
2023-05-22T18:49:42.666Z,3.00
2023-05-22T18:52:09.208Z,2.80
2023-05-22T18:54:36.977Z,3.33
2023-05-22T18:57:03.687Z,2.60
2023-05-22T18:59:30.139Z,2.83
2023-05-22T19:01:56.564Z,2.58
2023-05-22T19:04:23.031Z,2.60
2023-05-22T19:06:49.491Z,3.10
2023-05-22T19:09:16.010Z,3.30
2023-05-22T19:11:43.745Z,2.90
2023-05-22T19:14:10.294Z,2.30
2023-05-22T19:16:36.759Z,2.95
2023-05-22T19:19:03.630Z,3.20
2023-05-22T19:21:30.171Z,2.85
2023-05-22T19:23:56.777Z,2.80
2023-05-22T19:26:23.378Z,2.85
2023-05-22T19:28:51.160Z,2.85
2023-05-22T19:31:17.735Z,2.78
2023-05-22T19:33:44.168Z,2.63
2023-05-22T19:36:10.592Z,2.75
2023-05-22T19:38:37.097Z,2.50
2023-05-22T19:41:03.707Z,2.30
2023-05-22T19:43:30.329Z,2.80
2023-05-22T19:45:58.220Z,3.08
2023-05-22T19:48:24.907Z,2.50
2023-05-22T19:50:51.761Z,2.80
2023-05-22T19:53:18.492Z,2.70
2023-05-22T19:55:45.118Z,2.80
2023-05-22T19:58:11.689Z,2.70
2023-05-22T20:00:38.449Z,2.60
2023-05-22T20:03:06.537Z,2.92
2023-05-22T20:05:33.090Z,2.63
2023-05-22T20:07:59.696Z,2.60
2023-05-22T20:10:26.215Z,2.80
2023-05-22T20:12:54.755Z,2.90
2023-05-22T20:15:21.551Z,2.85
2023-05-22T20:17:48.361Z,2.80
2023-05-22T20:20:16.289Z,2.85
2023-05-22T20:22:42.819Z,2.53
2023-05-22T20:25:09.488Z,2.75
2023-05-22T20:27:36.226Z,2.53
2023-05-22T20:30:03.122Z,2.55
2023-05-22T20:32:29.669Z,2.40
2023-05-22T20:34:56.202Z,2.35
2023-05-22T20:37:23.974Z,2.80
2023-05-22T20:39:50.454Z,2.83
2023-05-22T20:42:17.249Z,2.75
2023-05-22T20:44:43.893Z,2.90
2023-05-22T20:47:10.371Z,2.47
2023-05-22T20:49:36.979Z,2.85
2023-05-22T20:52:03.705Z,2.60
2023-05-22T20:54:31.424Z,2.47
2023-05-22T20:56:57.890Z,2.65
2023-05-22T20:59:24.496Z,2.60
2023-05-22T21:01:50.959Z,2.35
2023-05-22T21:04:17.455Z,2.60
2023-05-22T21:06:43.939Z,2.78
2023-05-22T21:09:10.373Z,2.67
2023-05-22T21:11:38.162Z,2.50
2023-05-22T21:14:04.673Z,2.80
2023-05-22T21:16:31.141Z,2.70
2023-05-22T21:18:57.657Z,2.60
2023-05-22T21:21:24.254Z,2.85
2023-05-22T21:23:50.651Z,3.10
2023-05-22T21:26:17.185Z,2.75
2023-05-22T21:28:45.114Z,2.47
2023-05-22T21:31:11.742Z,2.42
2023-05-22T21:33:38.207Z,2.75
2023-05-22T21:36:04.933Z,2.70
2023-05-22T21:38:31.393Z,2.63
2023-05-22T21:40:57.798Z,2.78
2023-05-22T21:43:24.804Z,2.47
2023-05-22T21:45:52.526Z,2.78
2023-05-22T21:48:18.987Z,3.40
2023-05-22T21:50:45.418Z,2.78
2023-05-22T21:53:12.062Z,2.95
2023-05-22T21:55:38.521Z,2.70
2023-05-22T21:58:04.979Z,2.78
2023-05-22T22:00:31.426Z,2.88
2023-05-22T22:02:59.377Z,3.13
2023-05-22T22:05:25.835Z,2.85
2023-05-22T22:07:52.314Z,3.00
2023-05-22T22:10:18.806Z,3.08
2023-05-22T22:12:45.240Z,2.90
2023-05-22T22:15:12.507Z,3.15
2023-05-22T22:17:39.049Z,3.40
2023-05-22T22:20:08.011Z,2.92
2023-05-22T22:22:34.452Z,3.13
2023-05-22T22:25:01.111Z,2.88
2023-05-22T22:27:27.606Z,2.70
2023-05-22T22:29:54.125Z,2.65
2023-05-22T22:32:20.591Z,2.65
2023-05-22T22:34:47.157Z,3.00
2023-05-22T22:37:14.935Z,2.85
2023-05-22T22:39:41.379Z,2.78
2023-05-22T22:42:07.942Z,2.78
2023-05-22T22:44:34.402Z,2.40
2023-05-22T22:47:01.679Z,2.75
2023-05-22T22:49:28.353Z,2.92
2023-05-22T22:51:54.808Z,2.78
2023-05-22T22:54:23.410Z,3.10
2023-05-22T22:56:50.369Z,2.70
2023-05-22T22:59:16.916Z,2.60
2023-05-22T23:01:43.447Z,2.70
2023-05-22T23:04:09.939Z,3.15
2023-05-22T23:06:36.553Z,3.05
2023-05-22T23:09:03.220Z,3.00
2023-05-22T23:11:31.035Z,3.35
2023-05-22T23:13:57.476Z,2.63
2023-05-22T23:16:24.160Z,3.00
2023-05-22T23:18:50.687Z,2.85
2023-05-22T23:21:17.105Z,3.13
2023-05-22T23:23:43.504Z,2.83
2023-05-22T23:26:10.003Z,2.85
2023-05-22T23:28:37.876Z,2.75
2023-05-22T23:31:04.382Z,2.80
2023-05-22T23:33:30.866Z,3.35
2023-05-22T23:35:57.297Z,2.90
2023-05-22T23:38:23.824Z,2.35
2023-05-22T23:40:50.256Z,2.53
2023-05-22T23:43:18.675Z,3.10
2023-05-22T23:45:47.751Z,2.95
2023-05-22T23:48:14.235Z,2.97
2023-05-22T23:50:40.708Z,3.05
2023-05-22T23:53:07.146Z,3.00
2023-05-22T23:55:33.693Z,3.08
2023-05-22T23:58:00.150Z,2.88
